sensor_id;sensor_type;location;lat;lon;timestamp;P1;durP1;ratioP1;P2;durP2;ratioP2
65757;SDS011;52495;52.208;5.158;2024-03-23T00:54:02;23.60;;;7.65;;
65757;SDS011;52495;52.208;5.158;2024-03-23T00:56:28;30.30;;;8.13;;
65757;SDS011;52495;52.208;5.158;2024-03-23T00:58:55;28.08;;;7.90;;
65757;SDS011;52495;52.208;5.158;2024-03-23T01:01:21;32.38;;;9.07;;
65757;SDS011;52495;52.208;5.158;2024-03-23T01:03:47;26.33;;;9.35;;
65757;SDS011;52495;52.208;5.158;2024-03-23T01:06:13;26.38;;;8.77;;
65757;SDS011;52495;52.208;5.158;2024-03-23T01:08:40;26.80;;;8.68;;
65757;SDS011;52495;52.208;5.158;2024-03-23T01:11:07;26.52;;;8.25;;
65757;SDS011;52495;52.208;5.158;2024-03-23T01:13:34;24.55;;;7.25;;
65757;SDS011;52495;52.208;5.158;2024-03-23T01:16:00;21.00;;;7.68;;
65757;SDS011;52495;52.208;5.158;2024-03-23T01:18:26;26.90;;;7.57;;
65757;SDS011;52495;52.208;5.158;2024-03-23T01:20:52;23.10;;;8.48;;
65757;SDS011;52495;52.208;5.158;2024-03-23T01:23:19;22.40;;;7.65;;
65757;SDS011;52495;52.208;5.158;2024-03-23T01:25:51;26.83;;;8.32;;
65757;SDS011;52495;52.208;5.158;2024-03-23T01:28:20;17.80;;;6.07;;
65757;SDS011;52495;52.208;5.158;2024-03-23T01:30:46;25.38;;;7.80;;
65757;SDS011;52495;52.208;5.158;2024-03-23T01:33:13;22.20;;;6.65;;
65757;SDS011;52495;52.208;5.158;2024-03-23T01:35:39;15.95;;;6.85;;
65757;SDS011;52495;52.208;5.158;2024-03-23T01:38:06;24.65;;;7.47;;
65757;SDS011;52495;52.208;5.158;2024-03-23T01:40:31;17.33;;;6.00;;
65757;SDS011;52495;52.208;5.158;2024-03-23T01:42:58;19.80;;;7.32;;
65757;SDS011;52495;52.208;5.158;2024-03-23T01:45:29;17.38;;;6.72;;
65757;SDS011;52495;52.208;5.158;2024-03-23T01:47:56;22.08;;;5.97;;
65757;SDS011;52495;52.208;5.158;2024-03-23T01:50:23;23.27;;;7.55;;
65757;SDS011;52495;52.208;5.158;2024-03-23T01:52:50;24.60;;;7.00;;
65757;SDS011;52495;52.208;5.158;2024-03-23T01:55:16;21.90;;;7.50;;
65757;SDS011;52495;52.208;5.158;2024-03-23T01:57:42;19.63;;;6.78;;
65757;SDS011;52495;52.208;5.158;2024-03-23T02:00:08;18.60;;;6.40;;
65757;SDS011;52495;52.208;5.158;2024-03-23T02:02:43;24.92;;;6.97;;
65757;SDS011;52495;52.208;5.158;2024-03-23T02:05:09;23.60;;;6.97;;
65757;SDS011;52495;52.208;5.158;2024-03-23T02:07:36;24.08;;;7.40;;
65757;SDS011;52495;52.208;5.158;2024-03-23T02:10:03;20.98;;;7.00;;
65757;SDS011;52495;52.208;5.158;2024-03-23T02:12:30;26.52;;;7.05;;
65757;SDS011;52495;52.208;5.158;2024-03-23T02:14:56;18.08;;;6.15;;
65757;SDS011;52495;52.208;5.158;2024-03-23T02:17:23;25.73;;;7.25;;
65757;SDS011;52495;52.208;5.158;2024-03-23T02:19:50;25.17;;;6.82;;
65757;SDS011;52495;52.208;5.158;2024-03-23T02:22:17;22.10;;;7.63;;
65757;SDS011;52495;52.208;5.158;2024-03-23T02:24:44;23.92;;;6.65;;
65757;SDS011;52495;52.208;5.158;2024-03-23T02:27:10;20.90;;;5.93;;
65757;SDS011;52495;52.208;5.158;2024-03-23T02:29:36;23.23;;;6.22;;
65757;SDS011;52495;52.208;5.158;2024-03-23T02:32:03;24.95;;;6.78;;
65757;SDS011;52495;52.208;5.158;2024-03-23T02:34:29;18.60;;;5.60;;
65757;SDS011;52495;52.208;5.158;2024-03-23T02:36:56;24.15;;;5.63;;
65757;SDS011;52495;52.208;5.158;2024-03-23T02:39:22;18.60;;;5.00;;
65757;SDS011;52495;52.208;5.158;2024-03-23T02:41:50;17.20;;;5.15;;
65757;SDS011;52495;52.208;5.158;2024-03-23T02:44:16;18.27;;;4.93;;
65757;SDS011;52495;52.208;5.158;2024-03-23T02:46:43;22.48;;;4.80;;
65757;SDS011;52495;52.208;5.158;2024-03-23T02:49:08;16.98;;;4.32;;
65757;SDS011;52495;52.208;5.158;2024-03-23T02:51:35;14.90;;;3.95;;
65757;SDS011;52495;52.208;5.158;2024-03-23T02:54:01;14.02;;;3.90;;
65757;SDS011;52495;52.208;5.158;2024-03-23T02:56:27;12.27;;;3.80;;
65757;SDS011;52495;52.208;5.158;2024-03-23T02:58:54;18.70;;;3.80;;
65757;SDS011;52495;52.208;5.158;2024-03-23T03:01:21;11.98;;;3.22;;
65757;SDS011;52495;52.208;5.158;2024-03-23T03:03:47;15.25;;;3.53;;
65757;SDS011;52495;52.208;5.158;2024-03-23T03:06:22;11.98;;;3.95;;
65757;SDS011;52495;52.208;5.158;2024-03-23T03:08:48;12.52;;;3.83;;
65757;SDS011;52495;52.208;5.158;2024-03-23T03:11:15;19.98;;;4.07;;
65757;SDS011;52495;52.208;5.158;2024-03-23T03:13:40;19.30;;;3.50;;
65757;SDS011;52495;52.208;5.158;2024-03-23T03:16:09;12.82;;;3.47;;
65757;SDS011;52495;52.208;5.158;2024-03-23T03:18:35;13.15;;;3.30;;
65757;SDS011;52495;52.208;5.158;2024-03-23T03:21:01;13.18;;;3.38;;
65757;SDS011;52495;52.208;5.158;2024-03-23T03:23:28;14.25;;;3.22;;
65757;SDS011;52495;52.208;5.158;2024-03-23T03:25:54;12.82;;;3.13;;
65757;SDS011;52495;52.208;5.158;2024-03-23T03:28:20;18.23;;;3.55;;
65757;SDS011;52495;52.208;5.158;2024-03-23T03:30:47;22.08;;;3.67;;
65757;SDS011;52495;52.208;5.158;2024-03-23T03:33:14;11.77;;;3.05;;
65757;SDS011;52495;52.208;5.158;2024-03-23T03:35:40;12.23;;;3.20;;
65757;SDS011;52495;52.208;5.158;2024-03-23T03:38:06;12.55;;;2.70;;
65757;SDS011;52495;52.208;5.158;2024-03-23T03:40:33;14.00;;;2.90;;
65757;SDS011;52495;52.208;5.158;2024-03-23T03:42:59;11.68;;;2.80;;
65757;SDS011;52495;52.208;5.158;2024-03-23T03:45:25;12.68;;;2.78;;
65757;SDS011;52495;52.208;5.158;2024-03-23T03:47:51;10.68;;;2.58;;
65757;SDS011;52495;52.208;5.158;2024-03-23T03:50:19;10.15;;;2.88;;
65757;SDS011;52495;52.208;5.158;2024-03-23T03:52:45;13.60;;;3.00;;
65757;SDS011;52495;52.208;5.158;2024-03-23T03:55:12;8.27;;;2.30;;
65757;SDS011;52495;52.208;5.158;2024-03-23T03:57:39;9.93;;;2.63;;
65757;SDS011;52495;52.208;5.158;2024-03-23T04:00:06;12.02;;;2.95;;
65757;SDS011;52495;52.208;5.158;2024-03-23T04:02:36;10.43;;;2.97;;
65757;SDS011;52495;52.208;5.158;2024-03-23T04:05:03;8.75;;;2.30;;
65757;SDS011;52495;52.208;5.158;2024-03-23T04:07:30;10.95;;;2.53;;
65757;SDS011;52495;52.208;5.158;2024-03-23T04:09:57;13.82;;;2.90;;
65757;SDS011;52495;52.208;5.158;2024-03-23T04:12:23;11.68;;;2.47;;
65757;SDS011;52495;52.208;5.158;2024-03-23T04:14:50;14.32;;;2.53;;
65757;SDS011;52495;52.208;5.158;2024-03-23T04:17:16;11.13;;;2.50;;
65757;SDS011;52495;52.208;5.158;2024-03-23T04:19:43;12.05;;;2.28;;
65757;SDS011;52495;52.208;5.158;2024-03-23T04:22:09;13.32;;;2.50;;
65757;SDS011;52495;52.208;5.158;2024-03-23T04:24:37;10.77;;;3.10;;
65757;SDS011;52495;52.208;5.158;2024-03-23T04:27:03;11.38;;;2.80;;
65757;SDS011;52495;52.208;5.158;2024-03-23T04:29:29;9.77;;;2.35;;
65757;SDS011;52495;52.208;5.158;2024-03-23T04:31:55;10.05;;;2.45;;
65757;SDS011;52495;52.208;5.158;2024-03-23T04:34:22;10.20;;;2.20;;
65757;SDS011;52495;52.208;5.158;2024-03-23T04:36:48;8.70;;;2.50;;
65757;SDS011;52495;52.208;5.158;2024-03-23T04:39:15;8.52;;;2.50;;
65757;SDS011;52495;52.208;5.158;2024-03-23T04:41:43;8.27;;;2.75;;
65757;SDS011;52495;52.208;5.158;2024-03-23T04:44:10;8.80;;;2.40;;
65757;SDS011;52495;52.208;5.158;2024-03-23T04:46:37;11.38;;;2.75;;
65757;SDS011;52495;52.208;5.158;2024-03-23T04:49:04;11.57;;;3.08;;
65757;SDS011;52495;52.208;5.158;2024-03-23T04:51:35;11.75;;;2.75;;
65757;SDS011;52495;52.208;5.158;2024-03-23T04:54:02;11.00;;;2.33;;
65757;SDS011;52495;52.208;5.158;2024-03-23T04:56:30;11.43;;;2.85;;
65757;SDS011;52495;52.208;5.158;2024-03-23T04:58:59;6.40;;;2.03;;
65757;SDS011;52495;52.208;5.158;2024-03-23T05:01:26;4.43;;;1.80;;
65757;SDS011;52495;52.208;5.158;2024-03-23T05:03:53;7.45;;;1.75;;
65757;SDS011;52495;52.208;5.158;2024-03-23T05:06:19;9.38;;;1.67;;
65757;SDS011;52495;52.208;5.158;2024-03-23T05:08:45;16.75;;;2.85;;
65757;SDS011;52495;52.208;5.158;2024-03-23T05:11:11;15.75;;;2.33;;
65757;SDS011;52495;52.208;5.158;2024-03-23T05:13:38;10.10;;;2.45;;
65757;SDS011;52495;52.208;5.158;2024-03-23T05:16:05;9.65;;;2.55;;
65757;SDS011;52495;52.208;5.158;2024-03-23T05:18:32;11.30;;;2.40;;
65757;SDS011;52495;52.208;5.158;2024-03-23T05:20:58;15.10;;;2.70;;
65757;SDS011;52495;52.208;5.158;2024-03-23T05:23:25;11.30;;;2.00;;
65757;SDS011;52495;52.208;5.158;2024-03-23T05:25:51;10.13;;;2.45;;
65757;SDS011;52495;52.208;5.158;2024-03-23T05:28:18;6.63;;;2.00;;
65757;SDS011;52495;52.208;5.158;2024-03-23T05:30:44;6.78;;;1.95;;
65757;SDS011;52495;52.208;5.158;2024-03-23T05:33:18;7.00;;;2.30;;
65757;SDS011;52495;52.208;5.158;2024-03-23T05:35:43;11.48;;;2.22;;
65757;SDS011;52495;52.208;5.158;2024-03-23T05:38:10;4.93;;;2.10;;
65757;SDS011;52495;52.208;5.158;2024-03-23T05:40:36;6.90;;;2.03;;
65757;SDS011;52495;52.208;5.158;2024-03-23T05:43:05;7.30;;;1.90;;
65757;SDS011;52495;52.208;5.158;2024-03-23T05:45:31;8.35;;;2.35;;
65757;SDS011;52495;52.208;5.158;2024-03-23T05:47:58;10.45;;;2.05;;
65757;SDS011;52495;52.208;5.158;2024-03-23T05:50:25;9.40;;;2.53;;
65757;SDS011;52495;52.208;5.158;2024-03-23T05:52:52;8.80;;;2.90;;
65757;SDS011;52495;52.208;5.158;2024-03-23T05:55:17;12.23;;;2.30;;
65757;SDS011;52495;52.208;5.158;2024-03-23T05:57:44;11.05;;;2.70;;
65757;SDS011;52495;52.208;5.158;2024-03-23T06:00:10;11.85;;;2.45;;
65757;SDS011;52495;52.208;5.158;2024-03-23T06:02:42;8.05;;;2.63;;
65757;SDS011;52495;52.208;5.158;2024-03-23T06:05:09;16.95;;;2.65;;
65757;SDS011;52495;52.208;5.158;2024-03-23T06:07:38;10.98;;;2.92;;
65757;SDS011;52495;52.208;5.158;2024-03-23T06:10:04;6.90;;;2.20;;
65757;SDS011;52495;52.208;5.158;2024-03-23T06:12:31;9.32;;;2.55;;
65757;SDS011;52495;52.208;5.158;2024-03-23T06:14:57;9.82;;;3.38;;
65757;SDS011;52495;52.208;5.158;2024-03-23T06:17:24;15.30;;;2.83;;
65757;SDS011;52495;52.208;5.158;2024-03-23T06:19:50;8.98;;;3.00;;
65757;SDS011;52495;52.208;5.158;2024-03-23T06:22:16;14.27;;;2.65;;
65757;SDS011;52495;52.208;5.158;2024-03-23T06:24:43;17.15;;;2.75;;
65757;SDS011;52495;52.208;5.158;2024-03-23T06:27:10;11.77;;;2.70;;
65757;SDS011;52495;52.208;5.158;2024-03-23T06:29:36;12.40;;;2.90;;
65757;SDS011;52495;52.208;5.158;2024-03-23T06:32:03;11.20;;;2.92;;
65757;SDS011;52495;52.208;5.158;2024-03-23T06:34:28;14.82;;;3.60;;
65757;SDS011;52495;52.208;5.158;2024-03-23T06:36:55;11.85;;;3.08;;
65757;SDS011;52495;52.208;5.158;2024-03-23T06:39:21;16.40;;;3.63;;
65757;SDS011;52495;52.208;5.158;2024-03-23T06:41:52;10.63;;;2.53;;
65757;SDS011;52495;52.208;5.158;2024-03-23T06:44:19;9.38;;;3.28;;
65757;SDS011;52495;52.208;5.158;2024-03-23T06:46:46;12.60;;;3.35;;
65757;SDS011;52495;52.208;5.158;2024-03-23T06:49:14;12.77;;;3.55;;
65757;SDS011;52495;52.208;5.158;2024-03-23T06:51:40;15.82;;;3.50;;
65757;SDS011;52495;52.208;5.158;2024-03-23T06:54:06;8.98;;;3.40;;
65757;SDS011;52495;52.208;5.158;2024-03-23T06:56:33;14.00;;;4.50;;
65757;SDS011;52495;52.208;5.158;2024-03-23T06:59:00;14.07;;;4.63;;
65757;SDS011;52495;52.208;5.158;2024-03-23T07:01:27;13.05;;;3.92;;
65757;SDS011;52495;52.208;5.158;2024-03-23T07:03:53;12.15;;;3.75;;
65757;SDS011;52495;52.208;5.158;2024-03-23T07:06:20;14.45;;;4.57;;
65757;SDS011;52495;52.208;5.158;2024-03-23T07:08:46;11.50;;;3.50;;
65757;SDS011;52495;52.208;5.158;2024-03-23T07:11:17;15.63;;;4.07;;
65757;SDS011;52495;52.208;5.158;2024-03-23T07:13:44;14.40;;;3.53;;
65757;SDS011;52495;52.208;5.158;2024-03-23T07:16:12;14.30;;;3.80;;
65757;SDS011;52495;52.208;5.158;2024-03-23T07:18:38;13.45;;;3.15;;
65757;SDS011;52495;52.208;5.158;2024-03-23T07:21:05;16.02;;;3.55;;
65757;SDS011;52495;52.208;5.158;2024-03-23T07:23:32;16.95;;;3.83;;
65757;SDS011;52495;52.208;5.158;2024-03-23T07:25:59;11.52;;;3.35;;
65757;SDS011;52495;52.208;5.158;2024-03-23T07:28:26;9.38;;;3.20;;
65757;SDS011;52495;52.208;5.158;2024-03-23T07:31:03;10.07;;;2.88;;
65757;SDS011;52495;52.208;5.158;2024-03-23T07:33:31;11.20;;;2.95;;
65757;SDS011;52495;52.208;5.158;2024-03-23T07:35:58;10.70;;;2.97;;
65757;SDS011;52495;52.208;5.158;2024-03-23T07:38:25;14.43;;;2.83;;
65757;SDS011;52495;52.208;5.158;2024-03-23T07:41:01;13.48;;;2.70;;
65757;SDS011;52495;52.208;5.158;2024-03-23T07:43:28;16.15;;;3.35;;
65757;SDS011;52495;52.208;5.158;2024-03-23T07:45:54;8.45;;;2.63;;
65757;SDS011;52495;52.208;5.158;2024-03-23T07:48:20;12.90;;;2.47;;
65757;SDS011;52495;52.208;5.158;2024-03-23T07:50:56;11.77;;;2.40;;
65757;SDS011;52495;52.208;5.158;2024-03-23T07:53:26;9.07;;;2.63;;
65757;SDS011;52495;52.208;5.158;2024-03-23T07:55:54;8.77;;;2.40;;
65757;SDS011;52495;52.208;5.158;2024-03-23T07:58:20;14.13;;;3.47;;
65757;SDS011;52495;52.208;5.158;2024-03-23T08:00:47;11.80;;;3.30;;
65757;SDS011;52495;52.208;5.158;2024-03-23T08:03:13;16.95;;;3.05;;
65757;SDS011;52495;52.208;5.158;2024-03-23T08:05:39;14.65;;;3.00;;
65757;SDS011;52495;52.208;5.158;2024-03-23T08:08:07;7.93;;;2.15;;
65757;SDS011;52495;52.208;5.158;2024-03-23T08:10:33;9.02;;;2.33;;
65757;SDS011;52495;52.208;5.158;2024-03-23T08:12:59;11.75;;;2.83;;
65757;SDS011;52495;52.208;5.158;2024-03-23T08:15:26;11.13;;;2.20;;
65757;SDS011;52495;52.208;5.158;2024-03-23T08:17:51;13.43;;;2.30;;
65757;SDS011;52495;52.208;5.158;2024-03-23T08:20:18;9.85;;;2.55;;
65757;SDS011;52495;52.208;5.158;2024-03-23T08:22:44;12.50;;;3.00;;
65757;SDS011;52495;52.208;5.158;2024-03-23T08:25:12;9.73;;;2.22;;
65757;SDS011;52495;52.208;5.158;2024-03-23T08:27:38;10.55;;;2.53;;
65757;SDS011;52495;52.208;5.158;2024-03-23T08:30:05;9.43;;;2.55;;
65757;SDS011;52495;52.208;5.158;2024-03-23T08:32:32;14.70;;;2.63;;
65757;SDS011;52495;52.208;5.158;2024-03-23T08:34:59;9.80;;;2.85;;
65757;SDS011;52495;52.208;5.158;2024-03-23T08:37:24;12.75;;;2.78;;
65757;SDS011;52495;52.208;5.158;2024-03-23T08:39:52;15.25;;;2.85;;
65757;SDS011;52495;52.208;5.158;2024-03-23T08:42:19;10.95;;;2.30;;
65757;SDS011;52495;52.208;5.158;2024-03-23T08:44:46;9.45;;;2.65;;
65757;SDS011;52495;52.208;5.158;2024-03-23T08:47:14;6.75;;;1.75;;
65757;SDS011;52495;52.208;5.158;2024-03-23T08:49:41;6.35;;;1.95;;
65757;SDS011;52495;52.208;5.158;2024-03-23T08:52:07;7.28;;;2.25;;
65757;SDS011;52495;52.208;5.158;2024-03-23T08:54:35;9.25;;;2.63;;
65757;SDS011;52495;52.208;5.158;2024-03-23T08:57:01;8.30;;;2.20;;
65757;SDS011;52495;52.208;5.158;2024-03-23T08:59:29;5.03;;;1.50;;
65757;SDS011;52495;52.208;5.158;2024-03-23T09:01:55;9.52;;;2.53;;
65757;SDS011;52495;52.208;5.158;2024-03-23T09:04:22;13.20;;;2.78;;
65757;SDS011;52495;52.208;5.158;2024-03-23T09:06:48;10.95;;;2.88;;
65757;SDS011;52495;52.208;5.158;2024-03-23T09:09:15;10.93;;;2.40;;
65757;SDS011;52495;52.208;5.158;2024-03-23T09:11:40;13.05;;;2.75;;
65757;SDS011;52495;52.208;5.158;2024-03-23T09:14:07;11.18;;;2.58;;
65757;SDS011;52495;52.208;5.158;2024-03-23T09:16:35;11.40;;;2.30;;
65757;SDS011;52495;52.208;5.158;2024-03-23T09:19:02;13.00;;;2.38;;
65757;SDS011;52495;52.208;5.158;2024-03-23T09:21:28;10.55;;;2.42;;
65757;SDS011;52495;52.208;5.158;2024-03-23T09:23:54;10.40;;;2.00;;
65757;SDS011;52495;52.208;5.158;2024-03-23T09:26:20;10.77;;;2.80;;
65757;SDS011;52495;52.208;5.158;2024-03-23T09:28:48;11.05;;;2.25;;
65757;SDS011;52495;52.208;5.158;2024-03-23T09:31:13;12.65;;;2.28;;
65757;SDS011;52495;52.208;5.158;2024-03-23T09:33:42;7.88;;;2.20;;
65757;SDS011;52495;52.208;5.158;2024-03-23T09:36:09;12.75;;;2.88;;
65757;SDS011;52495;52.208;5.158;2024-03-23T09:38:36;16.58;;;2.88;;
65757;SDS011;52495;52.208;5.158;2024-03-23T09:41:06;14.43;;;2.97;;
65757;SDS011;52495;52.208;5.158;2024-03-23T09:43:33;14.10;;;3.10;;
65757;SDS011;52495;52.208;5.158;2024-03-23T09:46:00;11.93;;;2.55;;
65757;SDS011;52495;52.208;5.158;2024-03-23T09:48:27;14.25;;;2.97;;
65757;SDS011;52495;52.208;5.158;2024-03-23T09:50:55;13.32;;;2.90;;
65757;SDS011;52495;52.208;5.158;2024-03-23T09:53:21;10.00;;;2.60;;
65757;SDS011;52495;52.208;5.158;2024-03-23T09:55:48;10.98;;;2.75;;
65757;SDS011;52495;52.208;5.158;2024-03-23T09:58:15;11.40;;;2.40;;
65757;SDS011;52495;52.208;5.158;2024-03-23T10:00:42;9.57;;;2.15;;
65757;SDS011;52495;52.208;5.158;2024-03-23T10:03:08;11.20;;;2.50;;
65757;SDS011;52495;52.208;5.158;2024-03-23T10:05:36;10.27;;;2.05;;
65757;SDS011;52495;52.208;5.158;2024-03-23T10:08:16;12.27;;;2.83;;
65757;SDS011;52495;52.208;5.158;2024-03-23T10:10:45;10.15;;;2.67;;
65757;SDS011;52495;52.208;5.158;2024-03-23T10:13:11;8.95;;;2.10;;
65757;SDS011;52495;52.208;5.158;2024-03-23T10:15:54;11.30;;;3.05;;
65757;SDS011;52495;52.208;5.158;2024-03-23T10:18:21;9.43;;;2.42;;
65757;SDS011;52495;52.208;5.158;2024-03-23T10:20:50;7.13;;;2.10;;
65757;SDS011;52495;52.208;5.158;2024-03-23T10:23:18;8.35;;;2.20;;
65757;SDS011;52495;52.208;5.158;2024-03-23T10:25:46;10.88;;;2.05;;
65757;SDS011;52495;52.208;5.158;2024-03-23T10:28:12;12.15;;;2.33;;
65757;SDS011;52495;52.208;5.158;2024-03-23T10:30:38;14.27;;;3.13;;
65757;SDS011;52495;52.208;5.158;2024-03-23T10:33:07;11.07;;;2.10;;
65757;SDS011;52495;52.208;5.158;2024-03-23T10:35:34;13.18;;;2.83;;
65757;SDS011;52495;52.208;5.158;2024-03-23T10:38:02;16.33;;;2.85;;
65757;SDS011;52495;52.208;5.158;2024-03-23T10:40:32;8.75;;;2.25;;
65757;SDS011;52495;52.208;5.158;2024-03-23T10:42:59;10.50;;;2.72;;
65757;SDS011;52495;52.208;5.158;2024-03-23T10:45:27;12.07;;;2.55;;
65757;SDS011;52495;52.208;5.158;2024-03-23T10:47:52;9.02;;;2.60;;
65757;SDS011;52495;52.208;5.158;2024-03-23T10:50:19;14.35;;;2.92;;
65757;SDS011;52495;52.208;5.158;2024-03-23T10:52:46;12.30;;;2.85;;
65757;SDS011;52495;52.208;5.158;2024-03-23T10:55:14;9.85;;;2.13;;
65757;SDS011;52495;52.208;5.158;2024-03-23T10:57:44;7.55;;;2.13;;
65757;SDS011;52495;52.208;5.158;2024-03-23T11:00:14;13.27;;;2.77;;
65757;SDS011;52495;52.208;5.158;2024-03-23T11:02:41;14.13;;;2.30;;
65757;SDS011;52495;52.208;5.158;2024-03-23T11:07:55;6.90;;;2.38;;
65757;SDS011;52495;52.208;5.158;2024-03-23T11:10:25;15.30;;;2.42;;
65757;SDS011;52495;52.208;5.158;2024-03-23T11:12:53;11.40;;;2.00;;
65757;SDS011;52495;52.208;5.158;2024-03-23T11:15:19;13.18;;;2.72;;
65757;SDS011;52495;52.208;5.158;2024-03-23T11:20:31;7.68;;;2.03;;
65757;SDS011;52495;52.208;5.158;2024-03-23T11:22:58;12.05;;;3.03;;
65757;SDS011;52495;52.208;5.158;2024-03-23T11:25:26;12.73;;;2.85;;
65757;SDS011;52495;52.208;5.158;2024-03-23T11:27:54;10.70;;;2.40;;
65757;SDS011;52495;52.208;5.158;2024-03-23T11:30:23;9.40;;;2.08;;
65757;SDS011;52495;52.208;5.158;2024-03-23T11:32:50;13.90;;;2.55;;
65757;SDS011;52495;52.208;5.158;2024-03-23T11:35:27;14.20;;;2.35;;
65757;SDS011;52495;52.208;5.158;2024-03-23T11:38:04;11.98;;;2.17;;
65757;SDS011;52495;52.208;5.158;2024-03-23T11:40:35;11.13;;;2.97;;
65757;SDS011;52495;52.208;5.158;2024-03-23T11:43:03;11.35;;;2.50;;
65757;SDS011;52495;52.208;5.158;2024-03-23T11:45:34;11.77;;;2.33;;
65757;SDS011;52495;52.208;5.158;2024-03-23T11:48:02;10.80;;;2.30;;
65757;SDS011;52495;52.208;5.158;2024-03-23T11:50:32;13.77;;;2.65;;
65757;SDS011;52495;52.208;5.158;2024-03-23T11:53:09;11.75;;;2.28;;
65757;SDS011;52495;52.208;5.158;2024-03-23T11:55:39;14.77;;;2.53;;
65757;SDS011;52495;52.208;5.158;2024-03-23T11:58:07;10.05;;;2.50;;
65757;SDS011;52495;52.208;5.158;2024-03-23T12:00:34;13.77;;;2.90;;
65757;SDS011;52495;52.208;5.158;2024-03-23T12:03:00;13.38;;;2.60;;
65757;SDS011;52495;52.208;5.158;2024-03-23T12:05:27;12.25;;;2.50;;
65757;SDS011;52495;52.208;5.158;2024-03-23T12:07:53;9.38;;;2.67;;
65757;SDS011;52495;52.208;5.158;2024-03-23T12:10:19;7.65;;;1.83;;
65757;SDS011;52495;52.208;5.158;2024-03-23T12:12:46;17.67;;;2.95;;
65757;SDS011;52495;52.208;5.158;2024-03-23T12:15:14;14.02;;;2.53;;
65757;SDS011;52495;52.208;5.158;2024-03-23T12:17:40;6.82;;;1.73;;
65757;SDS011;52495;52.208;5.158;2024-03-23T12:20:07;8.32;;;2.67;;
65757;SDS011;52495;52.208;5.158;2024-03-23T12:22:33;9.30;;;2.00;;
65757;SDS011;52495;52.208;5.158;2024-03-23T12:25:00;7.75;;;1.88;;
65757;SDS011;52495;52.208;5.158;2024-03-23T12:27:26;11.80;;;2.50;;
65757;SDS011;52495;52.208;5.158;2024-03-23T12:29:53;9.50;;;2.08;;
65757;SDS011;52495;52.208;5.158;2024-03-23T12:32:20;14.55;;;2.75;;
65757;SDS011;52495;52.208;5.158;2024-03-23T12:34:46;8.77;;;2.40;;
65757;SDS011;52495;52.208;5.158;2024-03-23T12:37:12;8.90;;;2.13;;
65757;SDS011;52495;52.208;5.158;2024-03-23T12:39:39;8.85;;;2.25;;
65757;SDS011;52495;52.208;5.158;2024-03-23T12:42:05;9.90;;;2.25;;
65757;SDS011;52495;52.208;5.158;2024-03-23T12:44:34;8.07;;;1.80;;
65757;SDS011;52495;52.208;5.158;2024-03-23T12:47:00;7.25;;;2.42;;
65757;SDS011;52495;52.208;5.158;2024-03-23T12:49:28;11.98;;;1.95;;
65757;SDS011;52495;52.208;5.158;2024-03-23T12:51:55;6.82;;;2.08;;
65757;SDS011;52495;52.208;5.158;2024-03-23T12:54:22;8.98;;;1.88;;
65757;SDS011;52495;52.208;5.158;2024-03-23T12:56:49;7.40;;;2.10;;
65757;SDS011;52495;52.208;5.158;2024-03-23T12:59:15;15.43;;;2.45;;
65757;SDS011;52495;52.208;5.158;2024-03-23T13:01:41;7.18;;;2.05;;
65757;SDS011;52495;52.208;5.158;2024-03-23T13:04:08;9.85;;;1.83;;
65757;SDS011;52495;52.208;5.158;2024-03-23T13:06:35;5.90;;;2.03;;
65757;SDS011;52495;52.208;5.158;2024-03-23T13:09:02;8.98;;;2.10;;
65757;SDS011;52495;52.208;5.158;2024-03-23T13:11:29;6.57;;;1.90;;
65757;SDS011;52495;52.208;5.158;2024-03-23T13:13:56;9.98;;;2.20;;
65757;SDS011;52495;52.208;5.158;2024-03-23T13:16:21;8.95;;;2.30;;
65757;SDS011;52495;52.208;5.158;2024-03-23T13:18:48;9.93;;;2.42;;
65757;SDS011;52495;52.208;5.158;2024-03-23T13:21:14;7.22;;;2.13;;
65757;SDS011;52495;52.208;5.158;2024-03-23T13:23:43;10.63;;;2.10;;
65757;SDS011;52495;52.208;5.158;2024-03-23T13:26:13;10.35;;;1.83;;
65757;SDS011;52495;52.208;5.158;2024-03-23T13:28:39;6.95;;;2.80;;
65757;SDS011;52495;52.208;5.158;2024-03-23T13:31:06;8.05;;;2.25;;
65757;SDS011;52495;52.208;5.158;2024-03-23T13:33:33;6.38;;;1.90;;
65757;SDS011;52495;52.208;5.158;2024-03-23T13:35:59;10.10;;;2.78;;
65757;SDS011;52495;52.208;5.158;2024-03-23T13:38:27;9.23;;;2.63;;
65757;SDS011;52495;52.208;5.158;2024-03-23T13:40:54;8.65;;;2.53;;
65757;SDS011;52495;52.208;5.158;2024-03-23T13:43:22;7.63;;;2.45;;
65757;SDS011;52495;52.208;5.158;2024-03-23T13:45:49;7.13;;;2.10;;
65757;SDS011;52495;52.208;5.158;2024-03-23T13:48:19;8.77;;;1.88;;
65757;SDS011;52495;52.208;5.158;2024-03-23T13:50:45;6.32;;;1.85;;
65757;SDS011;52495;52.208;5.158;2024-03-23T13:53:13;6.50;;;1.88;;
65757;SDS011;52495;52.208;5.158;2024-03-23T13:55:45;6.25;;;2.00;;
65757;SDS011;52495;52.208;5.158;2024-03-23T13:58:14;6.47;;;1.98;;
65757;SDS011;52495;52.208;5.158;2024-03-23T14:00:40;9.05;;;2.40;;
65757;SDS011;52495;52.208;5.158;2024-03-23T14:03:08;9.32;;;2.47;;
65757;SDS011;52495;52.208;5.158;2024-03-23T14:05:33;4.85;;;1.90;;
65757;SDS011;52495;52.208;5.158;2024-03-23T14:08:00;6.55;;;2.05;;
65757;SDS011;52495;52.208;5.158;2024-03-23T14:10:26;7.88;;;1.85;;
65757;SDS011;52495;52.208;5.158;2024-03-23T14:12:53;7.93;;;2.00;;
65757;SDS011;52495;52.208;5.158;2024-03-23T14:15:20;7.57;;;1.98;;
65757;SDS011;52495;52.208;5.158;2024-03-23T14:17:47;8.77;;;2.05;;
65757;SDS011;52495;52.208;5.158;2024-03-23T14:20:12;7.60;;;1.80;;
65757;SDS011;52495;52.208;5.158;2024-03-23T14:22:40;8.60;;;1.75;;
65757;SDS011;52495;52.208;5.158;2024-03-23T14:25:06;10.57;;;2.38;;
65757;SDS011;52495;52.208;5.158;2024-03-23T14:27:33;10.07;;;2.60;;
65757;SDS011;52495;52.208;5.158;2024-03-23T14:30:02;9.77;;;2.17;;
65757;SDS011;52495;52.208;5.158;2024-03-23T14:32:31;6.82;;;1.70;;
65757;SDS011;52495;52.208;5.158;2024-03-23T14:34:59;6.38;;;1.70;;
65757;SDS011;52495;52.208;5.158;2024-03-23T14:37:26;10.32;;;1.70;;
65757;SDS011;52495;52.208;5.158;2024-03-23T14:39:52;9.55;;;1.63;;
65757;SDS011;52495;52.208;5.158;2024-03-23T14:42:18;8.63;;;2.03;;
65757;SDS011;52495;52.208;5.158;2024-03-23T14:44:44;9.57;;;1.90;;
65757;SDS011;52495;52.208;5.158;2024-03-23T14:47:10;13.25;;;2.13;;
65757;SDS011;52495;52.208;5.158;2024-03-23T14:49:38;8.25;;;2.10;;
65757;SDS011;52495;52.208;5.158;2024-03-23T14:52:04;7.40;;;2.00;;
65757;SDS011;52495;52.208;5.158;2024-03-23T14:54:30;7.75;;;1.90;;
65757;SDS011;52495;52.208;5.158;2024-03-23T14:56:57;8.40;;;2.08;;
65757;SDS011;52495;52.208;5.158;2024-03-23T14:59:23;8.38;;;2.00;;
65757;SDS011;52495;52.208;5.158;2024-03-23T15:01:50;12.07;;;1.90;;
65757;SDS011;52495;52.208;5.158;2024-03-23T15:04:16;10.63;;;2.05;;
65757;SDS011;52495;52.208;5.158;2024-03-23T15:06:44;7.05;;;2.20;;
65757;SDS011;52495;52.208;5.158;2024-03-23T15:09:11;9.30;;;2.17;;
65757;SDS011;52495;52.208;5.158;2024-03-23T15:11:39;9.18;;;1.73;;
65757;SDS011;52495;52.208;5.158;2024-03-23T15:14:05;8.65;;;2.67;;
65757;SDS011;52495;52.208;5.158;2024-03-23T15:16:32;8.88;;;1.95;;
65757;SDS011;52495;52.208;5.158;2024-03-23T15:18:58;9.10;;;1.88;;
65757;SDS011;52495;52.208;5.158;2024-03-23T15:21:25;9.07;;;1.83;;
65757;SDS011;52495;52.208;5.158;2024-03-23T15:23:52;8.18;;;1.65;;
65757;SDS011;52495;52.208;5.158;2024-03-23T15:26:18;7.25;;;1.90;;
65757;SDS011;52495;52.208;5.158;2024-03-23T15:28:47;10.65;;;2.05;;
65757;SDS011;52495;52.208;5.158;2024-03-23T15:31:33;13.98;;;2.15;;
65757;SDS011;52495;52.208;5.158;2024-03-23T15:33:59;7.22;;;1.35;;
65757;SDS011;52495;52.208;5.158;2024-03-23T15:36:26;5.72;;;1.48;;